DAG weather

Barstow Daggett Airport
Daggett, California, United States

Public forecast

Using degrees Fahrenheit for public forecast. Weather courtesy of forecast.io.

METAR (pilot weather report)

Retrieved 2019/07/17 04:50 UTC (47 minutes ago):

KDAG 170450Z AUTO 23017KT 10SM CLR 31/03 A2983 RMK AO2 SLP068 T03110033

TAF (pilot weather forecast)

Forecast is more than 12 hours old.

Retrieved 2019/07/16 00:22 UTC (1 day ago):

TAF KDAG 162320Z 1700/1724 25018G28KT P6SM SKC FM170800 26014KT P6SM SKC FM172000 27015G25KT P6SM SKC